createdAt,value
2023-02-03T00:00:29.236Z,96962.94
2023-02-03T00:01:32.478Z,96964.81
2023-02-03T00:02:34.306Z,96950.72
2023-02-03T00:03:36.977Z,96953.44
2023-02-03T00:04:39.230Z,96953.44
2023-02-03T00:05:41.821Z,96959.09
2023-02-03T00:06:48.775Z,96959.91
2023-02-03T00:07:51.065Z,96966.72
2023-02-03T00:08:54.865Z,96971.31
2023-02-03T00:09:57.909Z,96967.53
2023-02-03T00:11:01.464Z,96968.84
2023-02-03T00:12:03.245Z,96977.53
2023-02-03T00:13:05.037Z,96975.66
2023-02-03T00:14:08.114Z,96981.84
2023-02-03T00:15:11.046Z,96969.13
2023-02-03T00:16:12.795Z,96959.09
2023-02-03T00:17:15.371Z,96956.16
2023-02-03T00:18:16.940Z,96949.91
2023-02-03T00:19:19.055Z,96960.75
2023-02-03T00:20:20.814Z,96945.00
2023-02-03T00:21:22.610Z,96945.81
2023-02-03T00:22:26.343Z,96942.53
2023-02-03T00:23:32.019Z,96950.72
2023-02-03T00:24:33.805Z,96953.69
2023-02-03T00:25:36.225Z,96947.72
2023-02-03T00:26:42.793Z,96949.09
2023-02-03T00:27:46.458Z,96948.56
2023-02-03T00:28:48.654Z,96953.16
2023-02-03T00:29:50.807Z,96952.34
2023-02-03T00:30:54.456Z,96944.75
2023-02-03T00:31:56.852Z,96948.50
2023-02-03T00:32:59.313Z,96944.50
2023-02-03T00:34:01.234Z,96941.78
2023-02-03T00:35:03.012Z,96952.41
2023-02-03T00:36:08.417Z,96946.69
2023-02-03T00:37:14.358Z,96950.78
2023-02-03T00:38:16.028Z,96943.97
2023-02-03T00:39:17.977Z,96949.09
2023-02-03T00:40:24.006Z,96948.31
2023-02-03T00:41:34.763Z,96939.91
2023-02-03T00:42:37.043Z,96956.75
2023-02-03T00:43:40.014Z,96942.66
2023-02-03T00:44:43.079Z,96949.97
2023-02-03T00:45:45.189Z,96940.47
2023-02-03T00:46:47.019Z,96941.84
2023-02-03T00:47:48.832Z,96933.97
2023-02-03T00:48:50.590Z,96928.56
2023-02-03T00:49:52.866Z,96941.28
2023-02-03T00:50:55.022Z,96938.81
2023-02-03T00:51:57.070Z,96939.94
2023-02-03T00:52:59.199Z,96944.84
2023-02-03T00:54:01.424Z,96948.38
2023-02-03T00:55:06.841Z,96951.34
2023-02-03T00:56:12.998Z,96946.44
2023-02-03T00:57:15.203Z,96940.16
2023-02-03T00:58:17.691Z,96940.75
2023-02-03T00:59:19.784Z,96948.34
2023-02-03T01:00:22.516Z,96945.06
2023-02-03T01:01:24.922Z,96953.50
2023-02-03T01:02:27.152Z,96959.97
2023-02-03T01:03:29.334Z,96951.84
2023-02-03T01:04:31.556Z,96968.09
2023-02-03T01:05:33.815Z,96964.06
2023-02-03T01:06:35.917Z,96958.09
2023-02-03T01:07:38.044Z,96961.63
2023-02-03T01:08:39.974Z,96963.56
2023-02-03T01:09:42.055Z,96967.59
2023-02-03T01:10:45.976Z,96975.16
2023-02-03T01:11:47.909Z,96980.56
2023-02-03T01:12:49.734Z,96975.16
2023-02-03T01:13:52.939Z,96976.78
2023-02-03T01:14:54.965Z,96975.97
2023-02-03T01:15:57.531Z,96973.00
2023-02-03T01:17:01.567Z,96978.44
2023-02-03T01:18:04.123Z,96970.31
2023-02-03T01:19:06.027Z,96969.22
2023-02-03T01:20:08.698Z,96977.09
2023-02-03T01:21:14.066Z,96971.69
2023-02-03T01:22:17.304Z,96984.41
2023-02-03T01:23:19.396Z,96971.63
2023-02-03T01:24:21.239Z,96975.72
2023-02-03T01:25:23.476Z,96977.34
2023-02-03T01:26:25.470Z,96978.44
2023-02-03T01:27:27.173Z,96973.56
2023-02-03T01:28:31.682Z,96980.63
2023-02-03T01:29:34.884Z,96972.50
2023-02-03T01:30:37.007Z,96968.16
2023-02-03T01:31:40.767Z,96968.41
2023-02-03T01:32:43.898Z,96966.78
2023-02-03T01:33:48.962Z,96960.84
2023-02-03T01:34:51.118Z,96957.53
2023-02-03T01:35:53.255Z,96959.22
2023-02-03T01:36:55.396Z,96957.31
2023-02-03T01:37:59.951Z,96957.28
2023-02-03T01:39:01.867Z,96958.13
2023-02-03T01:40:05.594Z,96963.25
2023-02-03T01:41:13.637Z,96967.03
2023-02-03T01:42:16.727Z,96962.75
2023-02-03T01:43:38.667Z,96968.16
2023-02-03T01:44:40.949Z,96970.59
2023-02-03T01:45:46.428Z,96963.81
2023-02-03T01:46:49.819Z,96958.41
2023-02-03T01:47:56.247Z,96964.63
2023-02-03T01:49:11.063Z,96959.47
2023-02-03T01:50:15.169Z,96952.16
2023-02-03T01:51:19.978Z,96942.13
2023-02-03T01:52:22.657Z,96946.44
2023-02-03T01:53:25.286Z,96945.09
2023-02-03T01:54:28.110Z,96948.06
2023-02-03T01:55:38.579Z,96935.34
2023-02-03T01:56:43.553Z,96938.63
2023-02-03T01:58:25.177Z,96938.88
2023-02-03T01:59:28.636Z,96936.16
2023-02-03T02:00:31.991Z,96936.16
2023-02-03T02:01:35.121Z,96948.91
2023-02-03T02:02:40.053Z,96943.72
2023-02-03T02:04:04.937Z,96931.78
2023-02-03T02:05:18.653Z,96947.56
2023-02-03T02:06:20.205Z,96947.31
2023-02-03T02:07:21.958Z,96940.53
2023-02-03T02:08:23.931Z,96934.53
2023-02-03T02:09:26.804Z,96941.59
2023-02-03T02:10:30.003Z,96943.22
2023-02-03T02:11:31.681Z,96932.38
2023-02-03T02:12:33.289Z,96943.78
2023-02-03T02:13:35.736Z,96936.72
2023-02-03T02:14:37.845Z,96932.38
2023-02-03T02:15:55.511Z,96931.56
2023-02-03T02:17:21.699Z,96926.44
2023-02-03T02:18:33.210Z,96920.47
2023-02-03T02:19:43.713Z,96927.00
2023-02-03T02:21:11.523Z,96922.94
2023-02-03T02:22:22.743Z,96922.66
2023-02-03T02:24:01.582Z,96924.56
2023-02-03T02:25:23.788Z,96929.69
2023-02-03T02:26:37.020Z,96930.22
2023-02-03T02:28:09.338Z,96934.84
2023-02-03T02:29:13.616Z,96932.13
2023-02-03T02:30:24.496Z,96941.38
2023-02-03T02:31:47.704Z,96942.41
2023-02-03T02:33:09.140Z,96941.63
2023-02-03T02:34:34.075Z,96935.66
2023-02-03T02:35:59.580Z,96929.41
2023-02-03T02:37:03.569Z,96936.72
2023-02-03T02:38:32.238Z,96943.22
2023-02-03T02:39:40.413Z,96919.13
2023-02-03T02:40:52.592Z,96923.19
2023-02-03T02:42:05.209Z,96933.75
2023-02-03T02:43:43.362Z,96933.50
2023-02-03T02:44:50.576Z,96932.66
2023-02-03T02:46:02.708Z,96921.56
2023-02-03T02:47:17.870Z,96927.53
2023-02-03T02:48:23.214Z,96935.38
2023-02-03T02:49:44.927Z,96923.75
2023-02-03T02:50:48.624Z,96935.66
2023-02-03T02:51:50.845Z,96911.84
2023-02-03T02:52:53.163Z,96924.31
2023-02-03T02:53:59.380Z,96923.22
2023-02-03T02:55:08.816Z,96918.03
2023-02-03T02:56:13.751Z,96922.09
2023-02-03T02:57:18.985Z,96933.47
2023-02-03T02:58:21.509Z,96938.34
2023-02-03T02:59:23.679Z,96929.69
2023-02-03T03:00:25.555Z,96914.75
2023-02-03T03:01:27.418Z,96928.31
2023-02-03T03:02:33.961Z,96933.19
2023-02-03T03:03:40.468Z,96920.47
2023-02-03T03:04:43.787Z,96922.91
2023-02-03T03:05:52.995Z,96924.00
2023-02-03T03:07:18.977Z,96918.03
2023-02-03T03:08:27.287Z,96917.50
2023-02-03T03:09:45.823Z,96922.13
2023-02-03T03:10:47.448Z,96913.44
2023-02-03T03:11:58.859Z,96913.16
2023-02-03T03:13:04.797Z,96910.16
2023-02-03T03:14:08.101Z,96905.84
2023-02-03T03:15:22.237Z,96902.03
2023-02-03T03:16:27.063Z,96917.50
2023-02-03T03:17:32.150Z,96912.91
2023-02-03T03:18:37.339Z,96913.97
2023-02-03T03:19:42.313Z,96922.66
2023-02-03T03:20:46.763Z,96913.16
2023-02-03T03:22:00.881Z,96927.78
2023-02-03T03:23:06.940Z,96921.25
2023-02-03T03:24:11.009Z,96935.38
2023-02-03T03:25:21.829Z,96935.88
2023-02-03T03:26:30.754Z,96946.44
2023-02-03T03:27:34.083Z,96938.56
2023-02-03T03:28:41.313Z,96945.66
2023-02-03T03:29:45.620Z,96929.13
2023-02-03T03:30:49.536Z,96934.53
2023-02-03T03:31:51.154Z,96925.03
2023-02-03T03:32:52.989Z,96918.84
2023-02-03T03:33:54.733Z,96919.91
2023-02-03T03:34:56.633Z,96919.91
2023-02-03T03:36:31.197Z,96910.16
2023-02-03T03:37:36.820Z,96916.38
2023-02-03T03:38:43.689Z,96925.28
2023-02-03T03:39:56.859Z,96926.66
2023-02-03T03:41:23.814Z,96928.84
2023-02-03T03:42:54.707Z,96924.81
2023-02-03T03:43:57.354Z,96933.75
2023-02-03T03:45:04.538Z,96926.97
2023-02-03T03:46:20.864Z,96914.19
2023-02-03T03:47:37.263Z,96918.03
2023-02-03T03:48:55.260Z,96923.16
2023-02-03T03:49:58.005Z,96916.66
2023-02-03T03:51:04.414Z,96918.78
2023-02-03T03:52:09.075Z,96926.16
2023-02-03T03:53:11.769Z,96915.31
2023-02-03T03:54:16.176Z,96918.28
2023-02-03T03:55:19.753Z,96903.16
2023-02-03T03:56:25.658Z,96923.44
2023-02-03T03:57:30.842Z,96930.19
2023-02-03T03:58:33.102Z,96936.16
2023-02-03T03:59:37.598Z,96933.97
2023-02-03T04:00:40.507Z,96931.81
2023-02-03T04:01:43.059Z,96929.13
2023-02-03T04:02:51.459Z,96916.66
2023-02-03T04:03:57.175Z,96930.44
2023-02-03T04:05:00.292Z,96930.50
2023-02-03T04:06:02.225Z,96922.91
2023-02-03T04:07:03.816Z,96928.09
2023-02-03T04:08:05.519Z,96930.19
2023-02-03T04:09:07.952Z,96919.91
2023-02-03T04:10:38.511Z,96921.56
2023-02-03T04:11:58.776Z,96924.81
2023-02-03T04:13:00.721Z,96922.59
2023-02-03T04:14:02.334Z,96926.97
2023-02-03T04:15:04.063Z,96923.66
2023-02-03T04:16:05.705Z,96929.31
2023-02-03T04:17:07.351Z,96930.19
2023-02-03T04:18:12.334Z,96925.53
2023-02-03T04:19:14.265Z,96937.75
2023-02-03T04:20:16.069Z,96949.13
2023-02-03T04:21:17.688Z,96949.97
2023-02-03T04:22:19.669Z,96957.28
2023-02-03T04:23:22.126Z,96959.47
2023-02-03T04:24:24.178Z,96958.41
2023-02-03T04:25:26.022Z,96957.28
2023-02-03T04:26:27.681Z,96951.59
2023-02-03T04:27:29.328Z,96942.59
2023-02-03T04:28:30.888Z,96936.66
2023-02-03T04:29:33.191Z,96943.97
2023-02-03T04:30:34.850Z,96941.53
2023-02-03T04:31:36.711Z,96943.41
2023-02-03T04:32:38.410Z,96951.28
2023-02-03T04:33:40.098Z,96941.84
2023-02-03T04:34:41.724Z,96944.00
2023-02-03T04:35:43.289Z,96942.09
2023-02-03T04:36:44.882Z,96948.06
2023-02-03T04:37:46.583Z,96953.19
2023-02-03T04:38:51.317Z,96948.59
2023-02-03T04:39:55.491Z,96958.34
2023-02-03T04:40:57.099Z,96966.78
2023-02-03T04:41:58.711Z,96965.94
2023-02-03T04:43:06.150Z,96968.88
2023-02-03T04:44:07.866Z,96968.59
2023-02-03T04:45:11.671Z,96967.03
2023-02-03T04:46:13.329Z,96958.91
2023-02-03T04:47:15.612Z,96953.75
2023-02-03T04:48:17.383Z,96955.06
2023-02-03T04:49:19.050Z,96950.22
2023-02-03T04:50:20.706Z,96950.22
2023-02-03T04:51:22.391Z,96956.72
2023-02-03T04:52:24.059Z,96939.94
2023-02-03T04:53:26.000Z,96949.13
2023-02-03T04:54:27.594Z,96938.56
2023-02-03T04:55:29.438Z,96945.34
2023-02-03T04:56:31.068Z,96945.91
2023-02-03T04:57:32.613Z,96945.88
2023-02-03T04:58:34.218Z,96944.78
2023-02-03T04:59:35.843Z,96954.81
2023-02-03T05:00:37.842Z,96951.00
2023-02-03T05:01:39.473Z,96944.53
2023-02-03T05:02:41.098Z,96934.22
2023-02-03T05:03:42.744Z,96942.59
2023-02-03T05:04:44.380Z,96942.88
2023-02-03T05:05:46.488Z,96932.84
2023-02-03T05:06:48.165Z,96936.06
2023-02-03T05:07:49.764Z,96945.34
2023-02-03T05:08:52.181Z,96950.50
2023-02-03T05:09:53.764Z,96958.91
2023-02-03T05:10:55.519Z,96954.56
2023-02-03T05:11:57.050Z,96954.56
2023-02-03T05:12:58.677Z,96963.75
2023-02-03T05:14:00.279Z,96965.13
2023-02-03T05:15:01.862Z,96957.00
2023-02-03T05:16:03.590Z,96969.19
2023-02-03T05:17:05.191Z,96955.38
2023-02-03T05:18:06.913Z,96956.19
2023-02-03T05:19:09.007Z,96953.47
2023-02-03T05:20:11.489Z,96948.63
2023-02-03T05:21:13.186Z,96951.34
2023-02-03T05:22:14.768Z,96944.50
2023-02-03T05:23:16.505Z,96931.25
2023-02-03T05:24:18.137Z,96937.75
2023-02-03T05:25:19.737Z,96934.47
2023-02-03T05:26:21.362Z,96927.44
2023-02-03T05:27:22.934Z,96913.59
2023-02-03T05:28:24.564Z,96922.84
2023-02-03T05:29:26.231Z,96910.88
2023-02-03T05:30:28.403Z,96931.72
2023-02-03T05:31:30.579Z,96914.91
2023-02-03T05:32:32.307Z,96917.13
2023-02-03T05:33:33.957Z,96908.47
2023-02-03T05:34:35.823Z,96908.47
2023-02-03T05:35:37.449Z,96906.84
2023-02-03T05:36:39.234Z,96908.72
2023-02-03T05:37:40.830Z,96919.56
2023-02-03T05:38:42.584Z,96900.34
2023-02-03T05:39:44.199Z,96910.88
2023-02-03T05:41:09.484Z,96892.75
2023-02-03T05:42:11.104Z,96911.94
2023-02-03T05:43:12.641Z,96913.88
2023-02-03T05:44:14.305Z,96913.88
2023-02-03T05:45:17.314Z,96916.53
2023-02-03T05:46:19.027Z,96924.09
2023-02-03T05:47:20.620Z,96920.31
2023-02-03T05:48:22.467Z,96924.91
2023-02-03T05:49:24.608Z,96926.50
2023-02-03T05:50:27.866Z,96923.59
2023-02-03T05:51:42.149Z,96921.69
2023-02-03T05:52:43.870Z,96909.50
2023-02-03T05:53:45.560Z,96907.06
2023-02-03T05:54:47.134Z,96901.63
2023-02-03T05:55:48.717Z,96898.66
2023-02-03T05:56:50.553Z,96899.75
2023-02-03T05:57:52.120Z,96894.06
2023-02-03T05:58:53.794Z,96887.28
2023-02-03T05:59:55.431Z,96893.19
2023-02-03T06:00:57.036Z,96900.25
2023-02-03T06:01:58.653Z,96900.81
2023-02-03T06:03:02.589Z,96895.38
2023-02-03T06:04:05.046Z,96910.00
2023-02-03T06:05:07.108Z,96905.41
2023-02-03T06:06:08.690Z,96915.16
2023-02-03T06:07:10.828Z,96918.13
2023-02-03T06:08:12.485Z,96917.03
2023-02-03T06:09:14.033Z,96915.41
2023-02-03T06:10:15.982Z,96906.78
2023-02-03T06:11:17.748Z,96906.75
2023-02-03T06:12:19.532Z,96903.50
2023-02-03T06:13:21.105Z,96907.53
2023-02-03T06:14:22.806Z,96915.94
2023-02-03T06:15:24.466Z,96925.69
2023-02-03T06:16:27.441Z,96927.88
2023-02-03T06:17:29.135Z,96922.72
2023-02-03T06:18:30.957Z,96932.47
2023-02-03T06:19:32.532Z,96924.91
2023-02-03T06:20:34.570Z,96923.03
2023-02-03T06:21:36.117Z,96928.19
2023-02-03T06:22:37.764Z,96926.81
2023-02-03T06:23:39.369Z,96925.75
2023-02-03T06:24:41.218Z,96937.13
2023-02-03T06:25:43.450Z,96937.69
2023-02-03T06:26:45.156Z,96928.50
2023-02-03T06:27:46.938Z,96925.22
2023-02-03T06:28:48.584Z,96920.88
2023-02-03T06:29:50.703Z,96930.38
2023-02-03T06:30:53.216Z,96922.22
2023-02-03T06:31:54.965Z,96920.09
2023-02-03T06:32:56.738Z,96921.44
2023-02-03T06:33:59.536Z,96920.38
2023-02-03T06:35:01.202Z,96910.31
2023-02-03T06:36:02.848Z,96899.22
2023-02-03T06:37:04.502Z,96892.19
2023-02-03T06:38:06.164Z,96897.03
2023-02-03T06:39:07.763Z,96901.38
2023-02-03T06:40:10.944Z,96903.00
2023-02-03T06:41:12.518Z,96898.66
2023-02-03T06:42:15.199Z,96904.09
2023-02-03T06:43:16.823Z,96918.69
2023-02-03T06:44:18.696Z,96902.41
2023-02-03T06:45:20.424Z,96906.47
2023-02-03T06:46:22.123Z,96909.19
2023-02-03T06:47:23.851Z,96916.00
2023-02-03T06:48:25.542Z,96913.00
2023-02-03T06:49:27.113Z,96922.47
2023-02-03T06:50:29.109Z,96926.28
2023-02-03T06:51:31.167Z,96923.03
2023-02-03T06:52:32.734Z,96937.44
2023-02-03T06:53:34.684Z,96937.91
2023-02-03T06:54:36.361Z,96944.44
2023-02-03T06:55:37.935Z,96942.53
2023-02-03T06:56:39.644Z,96952.56
2023-02-03T06:57:45.707Z,96938.47
2023-02-03T06:58:47.344Z,96936.31
2023-02-03T06:59:48.974Z,96930.06
2023-02-03T07:00:51.516Z,96924.09
2023-02-03T07:01:53.295Z,96929.75
2023-02-03T07:02:56.451Z,96938.16
2023-02-03T07:03:58.933Z,96933.31
2023-02-03T07:05:00.898Z,96919.44
2023-02-03T07:06:02.471Z,96923.53
2023-02-03T07:07:04.168Z,96903.50
2023-02-03T07:08:05.940Z,96899.44
2023-02-03T07:09:08.156Z,96902.94
2023-02-03T07:10:10.325Z,96904.63
2023-02-03T07:11:12.046Z,96896.47
2023-02-03T07:12:13.704Z,96899.19
2023-02-03T07:13:15.608Z,96918.44
2023-02-03T07:14:17.567Z,96917.88
2023-02-03T07:15:19.471Z,96908.41
2023-02-03T07:16:21.224Z,96910.00
2023-02-03T07:17:22.901Z,96902.69
2023-02-03T07:19:47.939Z,96907.28
2023-02-03T07:20:49.579Z,96905.41
2023-02-03T07:21:51.183Z,96904.31
2023-02-03T07:22:54.297Z,96885.06
2023-02-03T07:23:56.238Z,96893.50
2023-02-03T07:24:57.860Z,96884.31
2023-02-03T07:26:00.373Z,96890.84
2023-02-03T07:27:04.437Z,96885.69
2023-02-03T07:28:06.173Z,96884.31
2023-02-03T07:29:07.909Z,96881.34
2023-02-03T07:30:10.379Z,96871.59
2023-02-03T07:31:12.090Z,96875.41
2023-02-03T07:32:14.014Z,96868.94
2023-02-03T07:33:15.677Z,96873.28
2023-02-03T07:34:17.339Z,96879.78
2023-02-03T07:35:19.584Z,96882.72
2023-02-03T07:36:21.222Z,96877.88
2023-02-03T07:37:22.878Z,96878.69
2023-02-03T07:38:25.544Z,96878.94
2023-02-03T07:39:27.251Z,96875.16
2023-02-03T07:40:29.086Z,96891.16
2023-02-03T07:41:30.888Z,96905.50
2023-02-03T07:42:32.483Z,96897.13
2023-02-03T07:43:34.308Z,96889.28
2023-02-03T07:44:35.997Z,96884.97
2023-02-03T07:45:37.630Z,96875.50
2023-02-03T07:46:44.668Z,96859.78
2023-02-03T07:47:46.276Z,96851.66
2023-02-03T07:48:47.898Z,96856.56
2023-02-03T07:49:49.553Z,96862.53
2023-02-03T07:50:52.849Z,96850.88
2023-02-03T07:51:54.528Z,96859.56
2023-02-03T07:52:56.194Z,96852.75
2023-02-03T07:53:57.966Z,96861.44
2023-02-03T07:54:59.572Z,96867.16
2023-02-03T07:56:05.005Z,96877.69
2023-02-03T07:57:06.651Z,96880.13
2023-02-03T07:58:08.341Z,96880.41
2023-02-03T07:59:09.964Z,96879.88
2023-02-03T08:00:13.934Z,96886.38
2023-02-03T08:01:16.841Z,96874.72
2023-02-03T08:02:18.405Z,96878.53
2023-02-03T08:03:20.021Z,96877.44
2023-02-03T08:04:22.709Z,96876.91
2023-02-03T08:05:24.371Z,96886.41
2023-02-03T08:06:26.253Z,96894.25
2023-02-03T08:07:27.851Z,96889.38
2023-02-03T08:08:29.488Z,96896.13
2023-02-03T08:09:31.068Z,96908.88
2023-02-03T08:10:32.674Z,96912.41
2023-02-03T08:11:34.328Z,96903.44
2023-02-03T08:12:36.106Z,96903.47
2023-02-03T08:13:37.913Z,96907.00
2023-02-03T08:14:39.502Z,96901.59
2023-02-03T08:15:41.108Z,96900.78
2023-02-03T08:16:43.007Z,96899.16
2023-02-03T08:17:44.704Z,96916.25
2023-02-03T08:18:46.454Z,96917.59
2023-02-03T08:19:48.108Z,96917.34
2023-02-03T08:20:49.765Z,96917.88
2023-02-03T08:21:51.394Z,96924.38
2023-02-03T08:22:53.270Z,96934.13
2023-02-03T08:23:55.241Z,96926.28
2023-02-03T08:24:56.868Z,96936.84
2023-02-03T08:25:58.533Z,96930.34
2023-02-03T08:27:01.008Z,96934.94
2023-02-03T08:28:02.699Z,96936.59
2023-02-03T08:29:04.436Z,96929.78
2023-02-03T08:30:07.909Z,96916.28
2023-02-03T08:31:12.593Z,96914.09
2023-02-03T08:32:17.530Z,96911.13
2023-02-03T08:33:19.162Z,96903.81
2023-02-03T08:34:20.748Z,96910.59
2023-02-03T08:35:22.414Z,96915.75
2023-02-03T08:36:24.061Z,96916.56
2023-02-03T08:37:25.879Z,96913.59
2023-02-03T08:38:27.558Z,96920.63
2023-02-03T08:39:29.227Z,96921.75
2023-02-03T08:40:31.173Z,96925.53
2023-02-03T08:41:33.468Z,96922.03
2023-02-03T08:42:35.201Z,96922.00
2023-02-03T08:43:37.092Z,96921.75
2023-02-03T08:44:41.423Z,96909.25
2023-02-03T08:45:43.260Z,96912.78
2023-02-03T08:46:44.935Z,96904.09
2023-02-03T08:47:46.583Z,96907.13
2023-02-03T08:48:48.222Z,96909.28
2023-02-03T08:49:49.859Z,96912.53
2023-02-03T08:50:52.974Z,96910.91
2023-02-03T08:51:55.723Z,96908.19
2023-02-03T08:52:57.228Z,96901.94
2023-02-03T08:53:58.851Z,96890.81
2023-02-03T08:55:00.610Z,96903.03
2023-02-03T08:56:07.160Z,96890.28
2023-02-03T08:57:08.940Z,96897.63
2023-02-03T08:58:10.568Z,96897.34
2023-02-03T08:59:14.164Z,96906.28
2023-02-03T09:00:16.230Z,96901.16
2023-02-03T09:01:17.883Z,96896.53
2023-02-03T09:02:19.857Z,96898.44
2023-02-03T09:03:21.558Z,96897.34
2023-02-03T09:04:25.982Z,96887.31
2023-02-03T09:05:27.631Z,96899.53
2023-02-03T09:06:30.748Z,96893.81
2023-02-03T09:07:32.478Z,96897.88
2023-02-03T09:08:34.119Z,96895.44
2023-02-03T09:09:35.744Z,96913.09
2023-02-03T09:10:37.401Z,96903.03
2023-02-03T09:11:41.160Z,96891.09
2023-02-03T09:12:42.771Z,96896.78
2023-02-03T09:13:46.012Z,96900.03
2023-02-03T09:14:47.688Z,96894.38
2023-02-03T09:15:49.397Z,96914.16
2023-02-03T09:16:51.213Z,96885.94
2023-02-03T09:17:54.048Z,96899.50
2023-02-03T09:18:55.624Z,96919.03
2023-02-03T09:19:57.330Z,96919.59
2023-02-03T09:21:07.436Z,96912.50
2023-02-03T09:22:09.164Z,96926.63
2023-02-03T09:23:11.254Z,96925.53
2023-02-03T09:24:12.861Z,96917.91
2023-02-03T09:25:16.274Z,96918.97
2023-02-03T09:26:17.939Z,96909.16
2023-02-03T09:27:19.589Z,96901.28
2023-02-03T09:28:21.296Z,96911.84
2023-02-03T09:29:23.301Z,96890.78
2023-02-03T09:30:25.149Z,96888.38
2023-02-03T09:31:26.895Z,96893.88
2023-02-03T09:32:28.560Z,96897.41
2023-02-03T09:33:30.750Z,96896.88
2023-02-03T09:34:32.366Z,96891.50
2023-02-03T09:35:33.919Z,96891.22
2023-02-03T09:36:35.652Z,96901.78
2023-02-03T09:37:37.308Z,96890.09
2023-02-03T09:38:39.424Z,96889.63
2023-02-03T09:39:41.167Z,96890.16
2023-02-03T09:40:42.813Z,96888.78
2023-02-03T09:42:01.414Z,96886.63
2023-02-03T09:43:20.342Z,96899.34
2023-02-03T09:44:38.626Z,96905.06
2023-02-03T09:45:40.254Z,96905.88
2023-02-03T09:46:48.480Z,96912.41
2023-02-03T09:47:54.188Z,96898.84
2023-02-03T09:49:04.702Z,96894.56
2023-02-03T09:50:11.385Z,96880.13
2023-02-03T09:51:55.618Z,96881.50
2023-02-03T09:52:58.681Z,96879.34
2023-02-03T09:54:08.115Z,96879.31
2023-02-03T09:55:31.496Z,96873.63
2023-02-03T09:56:37.074Z,96882.84
2023-02-03T09:57:51.326Z,96887.72
2023-02-03T09:58:53.027Z,96878.25
2023-02-03T09:59:57.579Z,96890.19
2023-02-03T10:01:02.005Z,96901.63
2023-02-03T10:02:41.125Z,96905.16
2023-02-03T10:03:56.554Z,96896.47
2023-02-03T10:05:11.213Z,96902.97
2023-02-03T10:06:12.682Z,96894.50
2023-02-03T10:07:29.232Z,96888.81
2023-02-03T10:08:46.007Z,96902.94
2023-02-03T10:09:57.192Z,96887.19
2023-02-03T10:11:49.898Z,96883.66
2023-02-03T10:13:20.274Z,96876.31
2023-02-03T10:14:24.722Z,96870.34
2023-02-03T10:15:44.623Z,96888.25
2023-02-03T10:16:58.230Z,96893.97
2023-02-03T10:18:04.682Z,96879.84
2023-02-03T10:19:11.530Z,96881.78
2023-02-03T10:20:21.700Z,96859.50
2023-02-03T10:21:35.979Z,96866.25
2023-02-03T10:22:44.834Z,96872.50
2023-02-03T10:23:47.364Z,96869.75
2023-02-03T10:24:59.345Z,96878.44
2023-02-03T10:26:05.810Z,96879.00
2023-02-03T10:27:17.182Z,96898.81
2023-02-03T10:28:21.545Z,96883.34
2023-02-03T10:29:39.792Z,96881.13
2023-02-03T10:30:45.683Z,96879.22
2023-02-03T10:31:48.431Z,96879.22
2023-02-03T10:33:12.004Z,96873.50
2023-02-03T10:34:15.684Z,96870.56
2023-02-03T10:35:17.276Z,96878.41
2023-02-03T10:36:21.937Z,96877.25
2023-02-03T10:37:44.870Z,96880.81
2023-02-03T10:38:50.078Z,96882.94
2023-02-03T10:39:52.750Z,96868.75
2023-02-03T10:40:54.286Z,96870.66
2023-02-03T10:41:56.182Z,96860.38
2023-02-03T10:43:16.240Z,96870.97
2023-02-03T10:44:17.899Z,96881.03
2023-02-03T10:45:20.875Z,96874.19
2023-02-03T10:46:31.033Z,96873.13
2023-02-03T10:47:36.194Z,96850.84
2023-02-03T10:48:37.794Z,96866.34
2023-02-03T10:49:39.525Z,96871.25
2023-02-03T10:50:44.588Z,96871.75
2023-02-03T10:51:51.828Z,96871.22
2023-02-03T10:53:39.278Z,96882.34
2023-02-03T10:54:40.949Z,96875.31
2023-02-03T10:55:42.591Z,96882.38
2023-02-03T10:56:44.197Z,96886.22
2023-02-03T10:57:45.784Z,96887.03
2023-02-03T10:58:53.329Z,96895.00
2023-02-03T11:00:07.586Z,96882.19
2023-02-03T11:01:17.985Z,96890.88
2023-02-03T11:02:29.417Z,96898.78
2023-02-03T11:03:31.747Z,96888.97
2023-02-03T11:04:33.791Z,96874.06
2023-02-03T11:05:35.573Z,96872.44
2023-02-03T11:06:54.641Z,96878.97
2023-02-03T11:07:56.254Z,96886.81
2023-02-03T11:08:57.850Z,96870.72
2023-02-03T11:09:59.425Z,96878.63
2023-02-03T11:11:07.058Z,96878.09
2023-02-03T11:12:15.276Z,96887.63
2023-02-03T11:13:16.815Z,96895.25
2023-02-03T11:14:18.441Z,96884.34
2023-02-03T11:15:20.016Z,96873.72
2023-02-03T11:16:22.023Z,96885.97
2023-02-03T11:17:27.121Z,96884.34
2023-02-03T11:18:47.446Z,96874.06
2023-02-03T11:19:50.992Z,96879.50
2023-02-03T11:20:53.056Z,96866.72
2023-02-03T11:21:57.399Z,96879.00
2023-02-03T11:22:59.422Z,96873.81
2023-02-03T11:24:05.516Z,96865.13
2023-02-03T11:25:18.240Z,96880.94
2023-02-03T11:26:26.407Z,96867.06
2023-02-03T11:27:30.738Z,96882.81
2023-02-03T11:28:32.767Z,96886.91
2023-02-03T11:29:36.806Z,96899.63
2023-02-03T11:30:39.388Z,96885.00
2023-02-03T11:31:47.541Z,96879.31
2023-02-03T11:32:50.551Z,96875.47
2023-02-03T11:34:03.817Z,96859.47
2023-02-03T11:35:18.896Z,96864.31
2023-02-03T11:36:20.634Z,96853.19
2023-02-03T11:37:54.168Z,96859.38
2023-02-03T11:39:18.002Z,96841.38
2023-02-03T11:40:31.305Z,96841.16
2023-02-03T11:41:38.062Z,96815.03
2023-02-03T11:42:42.690Z,96834.03
2023-02-03T11:43:46.155Z,96816.59
2023-02-03T11:44:47.813Z,96832.94
2023-02-03T11:45:51.936Z,96823.63
2023-02-03T11:46:57.441Z,96790.53
2023-02-03T11:47:58.984Z,96796.22
2023-02-03T11:49:06.523Z,96814.47
2023-02-03T11:50:37.971Z,96814.94
2023-02-03T11:51:47.146Z,96822.06
2023-02-03T11:53:14.126Z,96818.38
2023-02-03T11:54:22.970Z,96820.25
2023-02-03T11:55:39.296Z,96816.44
2023-02-03T11:56:54.066Z,96818.00
2023-02-03T11:58:07.008Z,96812.56
2023-02-03T11:59:36.744Z,96803.53
2023-02-03T12:00:41.003Z,96812.56
2023-02-03T12:02:11.786Z,96810.66
2023-02-03T12:03:16.812Z,96810.41
2023-02-03T12:05:08.963Z,96805.78
2023-02-03T12:06:10.572Z,96807.94
2023-02-03T12:07:30.742Z,96809.31
2023-02-03T12:08:40.223Z,96805.78
2023-02-03T12:09:48.704Z,96801.13
2023-02-03T12:11:08.815Z,96789.25
2023-02-03T12:12:32.416Z,96798.94
2023-02-03T12:13:44.273Z,96805.22
2023-02-03T12:15:02.155Z,96792.72
2023-02-03T12:16:16.755Z,96800.44
2023-02-03T12:17:24.346Z,96805.31
2023-02-03T12:18:49.515Z,96791.72
2023-02-03T12:20:05.972Z,96800.66
2023-02-03T12:21:10.538Z,96795.78
2023-02-03T12:22:24.602Z,96802.56
2023-02-03T12:23:26.123Z,96796.81
2023-02-03T12:24:50.166Z,96794.19
2023-02-03T12:26:10.016Z,96787.34
2023-02-03T12:27:27.301Z,96791.69
2023-02-03T12:28:46.264Z,96768.59
2023-02-03T12:29:53.292Z,96771.88
2023-02-03T12:31:07.903Z,96756.94
2023-02-03T12:32:14.919Z,96764.28
2023-02-03T12:33:20.982Z,96759.63
2023-02-03T12:34:32.276Z,96755.25
2023-02-03T12:35:38.380Z,96747.66
2023-02-03T12:36:48.910Z,96753.72
2023-02-03T12:37:57.614Z,96755.06
2023-02-03T12:39:36.683Z,96757.50
2023-02-03T12:40:47.688Z,96745.28
2023-02-03T12:42:18.123Z,96728.44
2023-02-03T12:43:22.648Z,96718.88
2023-02-03T12:44:33.495Z,96719.59
2023-02-03T12:45:36.958Z,96709.84
2023-02-03T12:46:46.027Z,96715.53
2023-02-03T12:47:52.587Z,96707.41
2023-02-03T12:49:09.602Z,96719.09
2023-02-03T12:50:18.482Z,96712.03
2023-02-03T12:51:41.737Z,96719.16
2023-02-03T12:53:06.446Z,96715.63